Time;durP1;ratioP1;P1;durP2;ratioP2;P2;SDS_P1;SDS_P2;PMS_P1;PMS_P2;Temp;Humidity;BMP_temperature;BMP_pressure;BME280_temperature;BME280_humidity;BME280_pressure;Samples;Min_cycle;Max_cycle;Signal;HPM_P1;HPM_P2
2022/07/27 17:06:34;;;;;;;;;;;22.10;78.20;;;;;;5063669;22;19925;-87
2022/07/27 17:09:17;;;;;;;;;;;21.70;78.10;;;;;;4996982;28;20451;-89
2022/07/27 17:11:50;;;;;;;;;;;21.40;78.40;;;;;;4995425;28;19933;-87
2022/07/27 17:14:22;;;;;;;;;;;21.60;78.50;;;;;;5027039;28;20342;-86
2022/07/27 17:16:53;;;;;;;;;;;21.50;78.00;;;;;;5024494;28;19933;-88
2022/07/27 17:19:22;;;;;;;;;;;21.50;78.60;;;;;;5022272;28;19929;-86
2022/07/27 17:21:53;;;;;;;;;;;21.90;79.40;;;;;;5036115;28;19935;-87
2022/07/27 17:24:27;;;;;;;;;;;21.90;78.80;;;;;;5006254;28;19926;-85
2022/07/27 17:26:57;;;;;;;;;;;21.70;78.20;;;;;;5030162;28;20369;-88
2022/07/27 17:29:28;;;;;;;;;;;21.50;78.30;;;;;;5013691;28;19939;-88
2022/07/27 17:32:07;;;;;;;;;;;21.30;77.70;;;;;;5016480;28;19929;-86
2022/07/27 17:34:35;;;;;;;;;;;21.40;79.10;;;;;;5007081;28;19932;-88
2022/07/27 17:37:07;;;;;;;;;;;21.10;78.80;;;;;;5033858;28;20369;-86
2022/07/27 17:39:39;;;;;;;;;;;21.40;77.70;;;;;;5005693;28;19930;-87
2022/07/27 17:42:24;;;;;;;;;;;21.40;78.00;;;;;;5001715;28;19925;-87
2022/07/27 17:44:53;;;;;;;;;;;21.90;78.10;;;;;;5011822;28;19926;-88
2022/07/27 17:47:23;;;;;;;;;;;21.90;80.00;;;;;;5000928;28;19957;-86
2022/07/27 17:49:57;;;;;;;;;;;21.50;79.50;;;;;;5013367;28;19926;-86
2022/07/27 17:52:26;;;;;;;;;;;21.10;78.90;;;;;;5020830;28;19925;-88
2022/07/27 17:54:59;;;;;;;;;;;21.00;79.60;;;;;;4984527;28;19932;-86
2022/07/27 17:57:28;;;;;;;;;;;21.00;78.90;;;;;;5032813;28;19933;-86
2022/07/27 17:59:56;;;;;;;;;;;21.00;79.40;;;;;;5001806;28;19936;-86
2022/07/27 18:02:24;;;;;;;;;;;21.00;79.60;;;;;;5032763;28;19925;-87
2022/07/27 18:04:54;;;;;;;;;;;20.90;79.70;;;;;;5017024;28;20324;-85
2022/07/27 18:07:23;;;;;;;;;;;20.60;79.70;;;;;;5005310;28;19934;-86
2022/07/27 18:09:52;;;;;;;;;;;21.20;80.60;;;;;;5020889;28;19929;-86
2022/07/27 18:12:22;;;;;;;;;;;20.80;80.70;;;;;;5015475;28;19944;-86
2022/07/27 18:17:44;;;;;;;;;;;21.10;80.30;;;;;;5011213;28;19933;-87
2022/07/27 18:20:13;;;;;;;;;;;19.20;80.00;;;;;;5025070;28;19929;-87
2022/07/27 18:22:44;;;;;;;;;;;20.60;80.10;;;;;;4995009;28;19929;-86
2022/07/27 18:25:17;;;;;;;;;;;20.60;80.50;;;;;;5026074;28;19925;-86
2022/07/27 18:27:49;;;;;;;;;;;20.50;80.50;;;;;;5029613;28;19925;-86
2022/07/27 18:30:28;;;;;;;;;;;20.50;80.50;;;;;;4998738;28;20169;-85
2022/07/27 18:32:57;;;;;;;;;;;20.50;80.10;;;;;;5014402;28;19930;-86
2022/07/27 18:35:28;;;;;;;;;;;20.50;81.50;;;;;;5011818;28;19930;-87
2022/07/27 18:38:06;;;;;;;;;;;21.70;81.30;;;;;;5016603;28;19929;-87
2022/07/27 18:40:43;;;;;;;;;;;20.60;81.00;;;;;;4990911;28;19932;-88
2022/07/27 18:43:11;;;;;;;;;;;20.70;80.50;;;;;;4989704;28;19952;-86
2022/07/27 18:45:39;;;;;;;;;;;20.40;81.20;;;;;;5033151;28;19925;-89
2022/07/27 18:48:10;;;;;;;;;;;20.40;80.10;;;;;;4990351;28;20292;-91
2022/07/27 18:50:46;;;;;;;;;;;20.20;80.00;;;;;;4999091;28;19929;-89
2022/07/27 18:53:16;;;;;;;;;;;20.10;79.70;;;;;;5021603;28;19925;-86
2022/07/27 18:55:47;;;;;;;;;;;20.50;80.00;;;;;;5000558;28;19929;-87
2022/07/27 18:58:26;;;;;;;;;;;20.20;79.20;;;;;;5033660;28;19925;-91
2022/07/27 19:00:54;;;;;;;;;;;20.20;80.50;;;;;;4986952;28;19925;-89
2022/07/27 19:03:33;;;;;;;;;;;20.20;79.90;;;;;;5020211;28;22466;-90
2022/07/27 19:06:03;;;;;;;;;;;20.10;79.40;;;;;;5020283;28;19940;-89
2022/07/27 19:08:32;;;;;;;;;;;20.10;79.00;;;;;;5006378;28;19933;-86
2022/07/27 19:11:00;;;;;;;;;;;20.00;79.40;;;;;;4998778;28;19933;-86
2022/07/27 19:13:29;;;;;;;;;;;18.60;78.40;;;;;;5018273;28;19925;-87
2022/07/27 19:15:58;;;;;;;;;;;19.80;80.40;;;;;;5025397;28;20181;-87
2022/07/27 19:18:26;;;;;;;;;;;19.80;79.80;;;;;;5020967;28;19932;-87
2022/07/27 19:20:54;;;;;;;;;;;19.80;79.30;;;;;;4991214;28;19931;-90
2022/07/27 19:23:24;;;;;;;;;;;19.70;79.90;;;;;;5031604;28;19939;-87
2022/07/27 19:25:57;;;;;;;;;;;20.00;80.20;;;;;;5010090;28;19952;-89
2022/07/27 19:28:29;;;;;;;;;;;19.70;80.80;;;;;;4994686;28;19926;-89
2022/07/27 19:31:00;;;;;;;;;;;19.50;80.80;;;;;;4992561;28;19943;-89
2022/07/27 19:33:31;;;;;;;;;;;19.90;81.30;;;;;;5005433;28;19944;-91
2022/07/27 19:36:01;;;;;;;;;;;19.60;80.10;;;;;;5027022;28;19936;-87
2022/07/27 19:38:32;;;;;;;;;;;20.40;81.00;;;;;;5009783;28;19933;-86
2022/07/27 19:41:03;;;;;;;;;;;19.50;80.50;;;;;;5030033;28;19940;-87
2022/07/27 19:43:36;;;;;;;;;;;19.50;81.40;;;;;;5034188;28;19933;-89
2022/07/27 19:46:05;;;;;;;;;;;19.40;80.90;;;;;;4992453;28;19930;-86
2022/07/27 19:48:44;;;;;;;;;;;19.40;82.70;;;;;;5021033;28;19933;-86
2022/07/27 19:51:17;;;;;;;;;;;19.30;81.00;;;;;;4995708;28;20447;-90
2022/07/27 19:53:46;;;;;;;;;;;19.30;80.60;;;;;;5013797;28;20363;-85
2022/07/27 19:56:14;;;;;;;;;;;19.30;80.60;;;;;;5036751;28;20273;-90
2022/07/27 19:58:44;;;;;;;;;;;19.20;80.40;;;;;;5034502;28;19929;-88
2022/07/27 20:01:13;;;;;;;;;;;19.20;79.90;;;;;;5023311;28;19931;-92
2022/07/27 20:03:43;;;;;;;;;;;19.10;80.20;;;;;;5013206;28;19930;-87
2022/07/27 20:06:25;;;;;;;;;;;18.20;79.30;;;;;;5030382;28;20259;-85
2022/07/27 20:08:58;;;;;;;;;;;19.20;79.60;;;;;;5002087;28;20408;-86
2022/07/27 20:11:29;;;;;;;;;;;19.10;79.60;;;;;;5026003;28;19925;-87
2022/07/27 20:14:01;;;;;;;;;;;19.00;79.50;;;;;;5021851;28;19926;-85
2022/07/27 20:16:32;;;;;;;;;;;19.70;79.70;;;;;;4995263;28;19949;-89
2022/07/27 20:19:02;;;;;;;;;;;19.00;79.60;;;;;;5006566;28;19932;-90
2022/07/27 20:21:35;;;;;;;;;;;18.40;79.40;;;;;;5026626;28;19933;-90
2022/07/27 20:24:06;;;;;;;;;;;18.90;80.00;;;;;;5015276;28;19936;-85
2022/07/27 20:26:51;;;;;;;;;;;18.80;80.10;;;;;;5030075;28;19934;-91
2022/07/27 20:29:19;;;;;;;;;;;19.40;82.40;;;;;;5029434;28;19929;-90
2022/07/27 20:31:50;;;;;;;;;;;18.80;81.10;;;;;;5019537;28;19929;-84
2022/07/27 20:34:22;;;;;;;;;;;18.70;81.50;;;;;;5034141;28;19925;-86
2022/07/27 20:36:50;;;;;;;;;;;18.70;82.20;;;;;;4987603;28;20281;-92
2022/07/27 20:39:19;;;;;;;;;;;18.70;83.00;;;;;;4995743;28;20157;-89
2022/07/27 20:41:49;;;;;;;;;;;19.10;83.00;;;;;;5028496;28;19960;-90
2022/07/27 20:44:19;;;;;;;;;;;18.60;83.70;;;;;;5028292;28;20081;-84
2022/07/27 20:46:47;;;;;;;;;;;18.80;84.40;;;;;;5012765;28;19933;-85
2022/07/27 20:49:17;;;;;;;;;;;18.50;84.50;;;;;;5016895;28;19933;-88
2022/07/27 20:51:46;;;;;;;;;;;18.50;84.60;;;;;;5018780;28;20149;-87
2022/07/27 20:54:15;;;;;;;;;;;18.50;85.00;;;;;;5013164;28;19929;-86
2022/07/27 20:56:44;;;;;;;;;;;18.50;85.90;;;;;;5011063;28;19940;-86
2022/07/27 20:59:12;;;;;;;;;;;18.50;86.50;;;;;;5014413;28;19933;-83
2022/07/27 21:01:44;;;;;;;;;;;18.20;85.70;;;;;;5008511;28;20401;-87
2022/07/27 21:04:17;;;;;;;;;;;18.40;86.70;;;;;;5025058;28;19933;-86
2022/07/27 21:06:49;;;;;;;;;;;18.40;86.50;;;;;;5021688;28;20086;-89
2022/07/27 21:09:17;;;;;;;;;;;18.30;88.20;;;;;;5020273;28;20225;-88
2022/07/27 21:11:45;;;;;;;;;;;16.80;87.50;;;;;;5003962;28;19937;-89
2022/07/27 21:14:15;;;;;;;;;;;18.30;88.40;;;;;;5022877;28;20459;-87
2022/07/27 21:16:43;;;;;;;;;;;18.20;88.30;;;;;;5034136;28;19933;-85
2022/07/27 21:19:12;;;;;;;;;;;18.20;89.00;;;;;;5005773;28;19927;-85
2022/07/27 21:21:42;;;;;;;;;;;18.10;89.20;;;;;;5009459;28;19940;-86
2022/07/27 21:24:15;;;;;;;;;;;18.10;89.20;;;;;;5015552;28;19933;-88
2022/07/27 21:26:47;;;;;;;;;;;18.10;89.60;;;;;;5021647;28;19925;-85
2022/07/27 21:29:15;;;;;;;;;;;18.10;90.00;;;;;;5023689;28;19925;-86
2022/07/27 21:31:46;;;;;;;;;;;18.00;90.00;;;;;;5006746;28;19941;-86
2022/07/27 21:34:17;;;;;;;;;;;18.00;90.20;;;;;;5025069;28;19932;-89
2022/07/27 21:36:45;;;;;;;;;;;18.00;90.00;;;;;;5002565;28;19937;-90
2022/07/27 21:39:14;;;;;;;;;;;18.00;90.00;;;;;;5019513;28;19929;-87
2022/07/27 21:41:41;;;;;;;;;;;18.00;90.40;;;;;;5022033;28;19960;-85
2022/07/27 21:44:09;;;;;;;;;;;17.90;90.30;;;;;;5002249;28;19937;-91
2022/07/27 21:46:37;;;;;;;;;;;18.00;90.30;;;;;;5021414;28;19933;-85
2022/07/27 21:49:14;;;;;;;;;;;18.10;90.40;;;;;;5027992;28;19933;-87
2022/07/27 21:51:42;;;;;;;;;;;17.90;90.40;;;;;;5014437;28;19932;-85
2022/07/27 21:54:10;;;;;;;;;;;17.80;90.30;;;;;;4992155;28;19931;-90
2022/07/27 21:56:46;;;;;;;;;;;18.00;90.20;;;;;;5033377;28;19926;-83
2022/07/27 21:59:17;;;;;;;;;;;17.80;90.60;;;;;;5005636;28;19932;-85
2022/07/27 22:01:46;;;;;;;;;;;17.80;90.70;;;;;;5025968;28;19932;-87
2022/07/27 22:04:17;;;;;;;;;;;17.80;90.90;;;;;;4988667;28;20012;-89
2022/07/27 22:06:44;;;;;;;;;;;17.80;90.40;;;;;;5000080;28;19925;-88
2022/07/27 22:09:13;;;;;;;;;;;17.70;91.00;;;;;;5012693;28;19932;-91
2022/07/27 22:11:40;;;;;;;;;;;17.70;90.70;;;;;;5017651;28;19932;-86
2022/07/27 22:14:08;;;;;;;;;;;17.60;91.30;;;;;;5022322;28;19929;-87
2022/07/27 22:16:35;;;;;;;;;;;17.60;91.10;;;;;;4998390;28;19936;-84
2022/07/27 22:19:03;;;;;;;;;;;17.60;91.00;;;;;;5016550;28;19934;-87
2022/07/27 22:21:31;;;;;;;;;;;17.50;91.10;;;;;;5018349;28;19925;-85
2022/07/27 22:23:58;;;;;;;;;;;17.50;91.30;;;;;;5000263;28;19929;-86
2022/07/27 22:26:27;;;;;;;;;;;17.50;91.30;;;;;;5001818;28;20323;-86
2022/07/27 22:28:54;;;;;;;;;;;17.50;91.30;;;;;;4984039;28;19932;-83
2022/07/27 22:31:22;;;;;;;;;;;17.30;91.40;;;;;;4999117;28;19944;-88
2022/07/27 22:33:50;;;;;;;;;;;17.40;91.20;;;;;;5017585;28;19925;-86
2022/07/27 22:36:18;;;;;;;;;;;17.40;91.60;;;;;;5000510;28;20308;-88
2022/07/27 22:38:46;;;;;;;;;;;15.50;91.20;;;;;;5016318;28;19955;-87
2022/07/27 22:41:15;;;;;;;;;;;17.30;91.80;;;;;;5018160;28;19933;-89
2022/07/27 22:43:52;;;;;;;;;;;17.30;91.80;;;;;;4980985;28;19926;-85
2022/07/27 22:46:20;;;;;;;;;;;17.30;91.80;;;;;;4995174;28;19925;-87
2022/07/27 22:48:52;;;;;;;;;;;17.50;91.90;;;;;;5004090;28;19933;-87
2022/07/27 22:51:20;;;;;;;;;;;17.30;91.80;;;;;;5022330;28;19934;-91
2022/07/27 22:53:49;;;;;;;;;;;17.20;91.80;;;;;;5032904;28;19926;-87
2022/07/27 22:56:16;;;;;;;;;;;17.00;91.60;;;;;;5024240;28;19926;-87
2022/07/27 22:58:44;;;;;;;;;;;17.20;92.20;;;;;;4997559;28;19945;-85
2022/07/27 23:01:16;;;;;;;;;;;17.20;92.20;;;;;;5024130;28;19935;-86
2022/07/27 23:04:04;;;;;;;;;;;15.70;91.50;;;;;;5008631;28;19936;-90
2022/07/27 23:06:32;;;;;;;;;;;17.10;92.10;;;;;;4989308;28;19933;-87
2022/07/27 23:09:00;;;;;;;;;;;17.10;92.10;;;;;;5019107;28;19933;-85
2022/07/27 23:11:28;;;;;;;;;;;16.80;92.10;;;;;;5010624;28;20024;-85
2022/07/27 23:13:58;;;;;;;;;;;17.00;92.10;;;;;;5029055;28;20418;-85
2022/07/27 23:16:26;;;;;;;;;;;17.00;92.60;;;;;;5012424;28;19925;-85
2022/07/27 23:18:54;;;;;;;;;;;17.10;92.30;;;;;;5028906;28;20320;-86
2022/07/27 23:21:21;;;;;;;;;;;16.40;92.20;;;;;;5029583;28;19932;-85
2022/07/27 23:23:49;;;;;;;;;;;17.00;92.70;;;;;;5008261;28;19931;-85
2022/07/27 23:26:20;;;;;;;;;;;17.00;92.30;;;;;;5022769;28;19932;-84
2022/07/27 23:28:52;;;;;;;;;;;17.00;92.40;;;;;;4995590;28;19930;-88
2022/07/27 23:31:21;;;;;;;;;;;17.00;92.50;;;;;;5033916;28;19925;-86
2022/07/27 23:33:48;;;;;;;;;;;17.00;92.70;;;;;;5021687;28;19930;-85
2022/07/27 23:36:16;;;;;;;;;;;17.00;92.50;;;;;;5030834;28;19926;-86
2022/07/27 23:38:44;;;;;;;;;;;17.00;92.80;;;;;;5010697;28;19936;-88
2022/07/27 23:41:13;;;;;;;;;;;16.90;92.50;;;;;;5034925;28;19935;-85
2022/07/27 23:43:43;;;;;;;;;;;17.00;92.60;;;;;;5023790;28;19935;-85
2022/07/27 23:46:12;;;;;;;;;;;17.00;92.50;;;;;;4996082;28;19937;-83
2022/07/27 23:48:40;;;;;;;;;;;17.00;92.60;;;;;;5018095;28;19960;-86
2022/07/27 23:51:14;;;;;;;;;;;17.80;92.90;;;;;;5007530;28;19926;-85
2022/07/27 23:53:41;;;;;;;;;;;16.90;92.60;;;;;;5018381;28;19926;-86
2022/07/27 23:56:09;;;;;;;;;;;16.80;93.00;;;;;;5026982;28;19932;-85
2022/07/27 23:58:38;;;;;;;;;;;17.00;93.20;;;;;;5028375;28;19931;-87
